Time;durP1;ratioP1;P1;durP2;ratioP2;P2;SDS_P1;SDS_P2;PMS_P1;PMS_P2;Temp;Humidity;BMP_temperature;BMP_pressure;BME280_temperature;BME280_humidity;BME280_pressure;Samples;Min_cycle;Max_cycle;Signal;HPM_P1;HPM_P2
2022/01/24 00:00:56;;;;;;;4.23;3.83;;;;;;;-0.61;84.88;100358.31;5093884;28;20425;-68
2022/01/24 00:03:23;;;;;;;4.83;4.43;;;;;;;-0.54;84.01;100359.53;5094303;28;20908;-69
2022/01/24 00:05:50;;;;;;;4.47;4.17;;;;;;;-0.60;84.29;100363.38;5094092;28;21002;-68
2022/01/24 00:08:17;;;;;;;4.37;4.00;;;;;;;-0.81;84.08;100371.84;5094237;28;20944;-68
2022/01/24 00:10:46;;;;;;;4.40;4.10;;;;;;;-0.75;84.78;100371.44;5093838;28;20429;-68
2022/01/24 00:16:14;;;;;;;4.83;4.43;;;;;;;-0.78;84.88;100367.25;5084205;28;20973;-68
2022/01/24 00:26:52;;;;;;;5.00;4.60;;;;;;;-0.48;82.61;100380.81;5094029;28;20421;-69
2022/01/24 00:29:20;;;;;;;5.37;4.97;;;;;;;-0.38;82.08;100383.63;5093681;28;21021;-69
2022/01/24 00:31:48;;;;;;;5.07;4.67;;;;;;;-0.35;81.06;100386.03;5094072;28;20435;-69
2022/01/24 00:34:16;;;;;;;4.83;4.53;;;;;;;-0.41;81.16;100383.84;5093539;28;20465;-70
2022/01/24 00:36:44;;;;;;;5.00;4.70;;;;;;;-0.40;81.16;100390.75;5093598;28;20526;-68
2022/01/24 00:39:10;;;;;;;4.93;4.63;;;;;;;-0.45;80.95;100385.03;5093194;28;20469;-70
2022/01/24 00:41:46;;;;;;;4.70;4.40;;;;;;;-0.51;80.89;100395.84;5093118;28;20433;-68
2022/01/24 00:44:40;;;;;;;5.17;4.77;;;;;;;-0.53;81.07;100398.56;5094001;28;20425;-69
2022/01/24 00:47:14;;;;;;;5.67;5.33;;;;;;;-0.56;80.84;100392.72;5093677;28;20435;-68
2022/01/24 00:55:09;;;;;;;6.07;5.50;;;;;;;-0.30;80.91;100403.06;5093071;28;20413;-70
2022/01/24 00:57:35;;;;;;;15.03;8.90;;;;;;;-0.31;80.19;100403.16;5092825;28;20819;-69
2022/01/24 01:00:02;;;;;;;27.27;13.17;;;;;;;-0.34;80.19;100403.38;5093408;28;20822;-68
2022/01/24 01:02:30;;;;;;;12.23;8.03;;;;;;;-0.43;80.14;100401.38;5093282;28;20441;-68
2022/01/24 01:05:12;;;;;;;8.90;7.07;;;;;;;-0.36;80.64;100411.28;5093146;28;20429;-68
2022/01/24 01:07:51;;;;;;;8.77;6.47;;;;;;;-0.28;80.19;100419.44;5093007;28;20920;-68
2022/01/24 01:18:35;;;;;;;6.70;6.17;;;;;;;-0.23;79.29;100427.81;5092609;28;20459;-69
2022/01/24 01:21:10;;;;;;;5.90;5.40;;;;;;;-0.22;79.67;100429.47;5092657;28;20418;-69
2022/01/24 01:23:41;;;;;;;9.80;6.30;;;;;;;-0.19;79.62;100431.03;5092639;28;20512;-70
2022/01/24 01:26:13;;;;;;;5.33;5.03;;;;;;;-0.19;79.96;100431.03;5092623;28;20457;-69
2022/01/24 01:28:43;;;;;;;6.13;5.63;;;;;;;-0.26;80.24;100432.38;5093253;28;20437;-70
2022/01/24 01:31:18;;;;;;;5.30;5.10;;;;;;;-0.43;80.41;100427.47;5093247;28;20535;-70
2022/01/24 01:33:57;;;;;;;6.37;5.87;;;;;;;-0.43;81.47;100427.47;5092917;28;20475;-69
2022/01/24 01:36:38;;;;;;;6.20;5.80;;;;;;;-0.49;82.16;100430.53;5092623;28;20448;-70
2022/01/24 01:53:05;;;;;;;6.40;6.00;;;;;;;-0.72;82.06;100423.41;5092122;28;20409;-70
2022/01/24 01:55:38;;;;;;;5.90;5.60;;;;;;;-0.67;81.63;100426.53;5092073;28;20956;-69
2022/01/24 01:58:06;;;;;;;6.60;6.20;;;;;;;-0.65;81.38;100429.88;5091958;28;21108;-69
2022/01/24 02:00:33;;;;;;;6.17;5.77;;;;;;;-0.61;82.07;100426.13;5092201;28;20530;-71
2022/01/24 02:03:00;;;;;;;6.23;5.83;;;;;;;-0.55;82.05;100438.75;5092133;28;20433;-70
2022/01/24 02:05:29;;;;;;;6.80;6.30;;;;;;;-0.54;81.22;100443.88;5092147;28;20490;-70
2022/01/24 02:07:56;;;;;;;5.63;5.23;;;;;;;-0.59;82.27;100442.50;5092253;28;20433;-70
2022/01/24 02:10:25;;;;;;;6.30;5.90;;;;;;;-0.61;81.66;100447.00;5091729;28;20438;-69
2022/01/24 02:12:54;;;;;;;7.33;6.83;;;;;;;-0.65;82.54;100453.34;5092381;28;20440;-69
2022/01/24 02:15:26;;;;;;;6.67;6.10;;;;;;;-0.61;82.33;100447.81;5091686;28;20437;-69
2022/01/24 02:18:03;;;;;;;7.00;6.50;;;;;;;-0.53;82.56;100450.75;5091693;28;20463;-71
2022/01/24 02:20:43;;;;;;;7.83;7.03;;;;;;;-0.49;81.94;100446.19;5092667;28;20437;-70
2022/01/24 02:23:20;;;;;;;7.23;6.63;;;;;;;-0.45;81.90;100439.81;5092121;28;20524;-70
2022/01/24 02:25:47;;;;;;;7.43;6.93;;;;;;;-0.56;81.60;100434.47;5092172;28;20528;-70
2022/01/24 02:28:16;;;;;;;7.93;7.43;;;;;;;-0.54;82.22;100445.63;5091425;28;21025;-70
2022/01/24 02:30:58;;;;;;;9.47;8.17;;;;;;;-0.53;82.10;100449.94;5095047;28;20940;-70
2022/01/24 02:33:25;;;;;;;9.43;8.30;;;;;;;-0.60;82.13;100443.44;5097068;28;20433;-69
2022/01/24 02:35:53;;;;;;;8.73;7.83;;;;;;;-0.56;81.83;100450.13;5096195;28;20440;-70
2022/01/24 02:38:34;;;;;;;9.97;8.43;;;;;;;-0.54;82.23;100443.00;5096202;28;20476;-69
2022/01/24 02:49:15;;;;;;;7.63;6.93;;;;;;;-0.76;82.63;100448.00;5095700;28;20931;-70
2022/01/24 02:51:47;;;;;;;7.50;6.90;;;;;;;-0.78;82.91;100460.28;5095975;28;20486;-70
2022/01/24 02:54:23;;;;;;;9.47;6.93;;;;;;;-0.78;82.46;100462.91;5095636;28;20520;-70
2022/01/24 02:56:50;;;;;;;7.33;6.70;;;;;;;-0.73;82.18;100458.25;5095546;28;20428;-70
2022/01/24 02:59:17;;;;;;;6.97;6.47;;;;;;;-0.80;82.73;100464.78;5095372;28;20465;-71
2022/01/24 03:01:45;;;;;;;8.57;7.60;;;;;;;-0.86;82.42;100465.22;5095164;28;20502;-69
2022/01/24 03:04:12;;;;;;;7.70;7.00;;;;;;;-0.94;83.11;100459.66;5095823;28;20452;-70
2022/01/24 03:06:39;;;;;;;7.70;7.07;;;;;;;-1.09;83.72;100471.91;5095468;28;20493;-70
2022/01/24 03:09:08;;;;;;;7.80;7.10;;;;;;;-1.13;84.18;100472.19;5094862;28;21009;-69
2022/01/24 03:11:57;;;;;;;8.10;7.50;;;;;;;-1.23;83.94;100468.50;5095274;28;20436;-70
2022/01/24 03:14:26;;;;;;;8.00;7.30;;;;;;;-1.23;84.42;100473.72;5095116;28;20504;-70
2022/01/24 03:16:54;;;;;;;9.57;8.67;;;;;;;-1.19;84.78;100483.00;5095252;28;20494;-70
2022/01/24 03:19:21;;;;;;;9.70;8.57;;;;;;;-1.19;85.39;100488.22;5094659;28;20468;-69
2022/01/24 03:21:48;;;;;;;8.63;7.93;;;;;;;-1.14;84.53;100491.38;5095084;28;20944;-69
2022/01/24 03:24:15;;;;;;;8.63;7.83;;;;;;;-1.17;84.82;100494.19;5095378;28;20429;-70
2022/01/24 03:26:43;;;;;;;8.70;8.07;;;;;;;-1.26;86.23;100500.00;5094938;28;21028;-69
2022/01/24 03:29:10;;;;;;;9.63;8.73;;;;;;;-1.30;85.92;100499.31;5095110;28;20790;-69
2022/01/24 03:31:38;;;;;;;9.47;8.63;;;;;;;-1.22;85.96;100499.69;5095043;28;20565;-69
2022/01/24 03:34:05;;;;;;;11.90;8.80;;;;;;;-1.12;85.96;100497.31;5094420;28;20815;-70
2022/01/24 03:36:32;;;;;;;10.20;9.17;;;;;;;-1.03;86.05;100496.72;5094880;28;20459;-70
2022/01/24 03:38:59;;;;;;;10.43;9.33;;;;;;;-1.02;85.30;100496.63;5094897;28;20549;-70
2022/01/24 03:41:26;;;;;;;14.27;10.77;;;;;;;-0.99;85.09;100498.22;5094156;28;20433;-70
2022/01/24 03:44:01;;;;;;;11.77;9.93;;;;;;;-0.91;85.07;100501.16;5094578;28;20441;-70
2022/01/24 03:46:29;;;;;;;11.27;10.13;;;;;;;-0.83;84.69;100509.31;5095131;28;20512;-69
2022/01/24 03:48:56;;;;;;;10.93;9.57;;;;;;;-0.79;84.42;100511.63;5094780;28;20441;-70
2022/01/24 03:51:24;;;;;;;10.33;9.43;;;;;;;-0.73;84.15;100513.84;5094561;28;20451;-70
2022/01/24 03:53:51;;;;;;;10.07;8.83;;;;;;;-0.63;84.03;100516.69;5094506;28;20859;-70
2022/01/24 03:56:18;;;;;;;11.90;9.47;;;;;;;-0.61;83.32;100522.66;5094363;28;20437;-71
2022/01/24 03:58:46;;;;;;;9.70;8.70;;;;;;;-0.57;82.88;100526.72;5094369;28;20477;-70
2022/01/24 04:01:14;;;;;;;11.67;9.53;;;;;;;-0.55;82.46;100524.84;5094479;28;20514;-70
2022/01/24 04:03:42;;;;;;;12.67;10.30;;;;;;;-0.52;82.47;100529.88;5094248;28;20440;-70
2022/01/24 04:06:09;;;;;;;13.77;11.63;;;;;;;-0.53;82.28;100522.97;5094200;28;20955;-71
2022/01/24 04:08:36;;;;;;;12.43;10.17;;;;;;;-0.60;82.94;100530.34;5094572;28;20445;-70
2022/01/24 04:11:09;;;;;;;11.47;10.27;;;;;;;-0.54;83.07;100521.28;5094637;28;20497;-70
2022/01/24 04:13:39;;;;;;;15.33;11.33;;;;;;;-0.62;82.85;100523.56;5094072;28;20429;-71
2022/01/24 04:16:26;;;;;;;13.93;11.83;;;;;;;-0.62;82.23;100528.78;5094395;28;20440;-71
2022/01/24 04:19:02;;;;;;;13.13;11.53;;;;;;;-0.60;82.82;100542.56;5093906;28;21059;-71
2022/01/24 04:21:31;;;;;;;11.63;10.43;;;;;;;-0.56;82.09;100541.44;5094191;28;20452;-71
2022/01/24 04:24:03;;;;;;;12.73;11.23;;;;;;;-0.53;81.62;100543.84;5094059;28;20441;-71
2022/01/24 04:26:30;;;;;;;15.53;13.43;;;;;;;-0.53;81.19;100543.84;5093810;28;20541;-71
2022/01/24 04:28:58;;;;;;;21.50;14.03;;;;;;;-0.55;81.78;100550.94;5094003;28;20502;-70
2022/01/24 04:31:25;;;;;;;16.10;13.50;;;;;;;-0.53;81.93;100554.28;5093708;28;20441;-70
2022/01/24 04:33:52;;;;;;;15.60;12.20;;;;;;;-0.55;81.32;100556.16;5093071;28;20522;-71
2022/01/24 04:36:22;;;;;;;13.13;11.73;;;;;;;-0.51;81.26;100563.69;5093475;28;20461;-70
2022/01/24 04:38:49;;;;;;;18.37;12.50;;;;;;;-0.52;81.76;100556.78;5093657;28;20469;-72
2022/01/24 04:41:20;;;;;;;15.97;12.90;;;;;;;-0.52;81.64;100559.38;5093668;28;20510;-70
2022/01/24 04:43:54;;;;;;;25.80;16.50;;;;;;;-0.50;81.28;100560.13;5093169;28;20997;-71
2022/01/24 04:46:43;;;;;;;26.00;15.60;;;;;;;-0.49;81.09;100572.25;5094039;28;20437;-70
2022/01/24 04:52:10;;;;;;;15.80;12.30;;;;;;;-0.52;81.75;100582.88;5080692;28;20437;-70
2022/01/24 04:54:40;;;;;;;14.70;11.33;;;;;;;-0.49;82.02;100593.13;5093444;28;20800;-70
2022/01/24 04:57:08;;;;;;;14.33;10.90;;;;;;;-0.47;82.06;100591.25;5093253;28;20441;-69
2022/01/24 04:59:36;;;;;;;15.93;12.13;;;;;;;-0.61;81.80;100603.53;5092755;28;20512;-71
2022/01/24 05:02:03;;;;;;;14.53;12.13;;;;;;;-0.90;81.25;100607.97;5092776;28;20498;-69
2022/01/24 05:04:29;;;;;;;19.20;12.43;;;;;;;-0.89;82.00;100606.22;5092985;28;20494;-69
2022/01/24 05:06:58;;;;;;;15.10;12.17;;;;;;;-0.80;82.39;100603.00;5092380;28;20463;-68
2022/01/24 05:09:26;;;;;;;13.67;12.30;;;;;;;-0.79;81.27;100615.09;5093016;28;20497;-71
2022/01/24 05:11:57;;;;;;;18.67;14.00;;;;;;;-0.88;81.36;100613.09;5092684;28;20489;-68
2022/01/24 05:25:47;;;;;;;25.27;19.70;;;;;;;-0.92;81.79;100635.94;5092747;28;20413;-70
2022/01/24 05:28:14;;;;;;;30.43;19.63;;;;;;;-1.01;81.76;100640.88;5092414;28;20498;-66
2022/01/24 05:30:41;;;;;;;26.03;21.37;;;;;;;-1.03;82.45;100637.50;5092369;28;20967;-65
2022/01/24 05:33:08;;;;;;;29.77;21.27;;;;;;;-0.96;81.89;100634.44;5092479;28;20506;-66
2022/01/24 05:35:35;;;;;;;26.50;21.33;;;;;;;-0.83;81.80;100644.91;5092021;28;20849;-66
2022/01/24 05:38:03;;;;;;;26.67;19.37;;;;;;;-0.79;81.39;100651.63;5091893;28;20483;-66
2022/01/24 05:40:31;;;;;;;22.90;19.37;;;;;;;-0.82;80.95;100633.56;5091465;28;20476;-66
2022/01/24 05:42:58;;;;;;;25.23;18.47;;;;;;;-0.85;80.34;100652.84;5092329;28;20437;-65
2022/01/24 05:45:25;;;;;;;28.00;18.40;;;;;;;-0.85;80.67;100650.22;5091618;28;20940;-66
2022/01/24 05:47:51;;;;;;;22.73;16.93;;;;;;;-0.87;81.14;100649.50;5090515;28;20514;-66
2022/01/24 05:50:18;;;;;;;22.33;16.40;;;;;;;-0.96;80.86;100657.06;5087520;28;20483;-66
2022/01/24 05:52:45;;;;;;;21.33;16.70;;;;;;;-0.94;81.47;100657.81;5089563;28;20948;-65
2022/01/24 05:55:13;;;;;;;20.17;17.07;;;;;;;-0.94;81.84;100657.81;5089965;28;20871;-67
2022/01/24 05:57:40;;;;;;;20.77;17.43;;;;;;;-0.87;81.93;100662.53;5090519;28;20486;-67
2022/01/24 06:00:10;;;;;;;23.20;17.37;;;;;;;-0.80;81.82;100665.59;5090541;28;20900;-68
2022/01/24 06:02:37;;;;;;;24.88;20.17;;;;;;;-0.73;81.97;100666.91;5089952;28;20424;-66
2022/01/24 06:05:04;;;;;;;7.67;7.07;;;;;;;0.75;96.11;100663.91;5089051;28;20191;-65
2022/01/24 06:07:31;;;;;;;35.80;23.40;;;;;;;1.56;100.00;100673.78;5089658;28;20959;-66
2022/01/24 06:09:58;;;;;;;30.43;21.57;;;;;;;0.99;97.39;100677.06;5090003;28;20448;-67
2022/01/24 06:12:27;;;;;;;32.07;23.33;;;;;;;0.74;86.30;100688.38;5109721;28;20797;-65
2022/01/24 06:14:53;;;;;;;27.67;21.70;;;;;;;0.62;84.22;100688.38;5090507;28;20455;-69
2022/01/24 06:17:20;;;;;;;31.70;21.60;;;;;;;0.51;84.08;100694.31;5090563;28;20498;-68
2022/01/24 06:19:47;;;;;;;30.83;20.33;;;;;;;0.49;83.43;100698.81;5089980;28;20472;-67
2022/01/24 06:22:13;;;;;;;31.47;21.33;;;;;;;0.44;80.03;100705.31;5090271;28;20494;-68
2022/01/24 06:24:40;;;;;;;26.97;18.40;;;;;;;0.47;80.20;100711.16;5089892;28;20445;-68
2022/01/24 06:27:07;;;;;;;28.17;20.30;;;;;;;0.40;79.29;100712.50;5088466;28;20492;-70
2022/01/24 06:29:35;;;;;;;30.87;20.13;;;;;;;0.32;78.56;100717.38;5089737;28;20445;-69
2022/01/24 06:32:02;;;;;;;30.40;20.83;;;;;;;0.18;79.42;100714.88;5080599;28;20462;-71
2022/01/24 06:34:28;;;;;;;30.53;21.13;;;;;;;0.00;80.35;100711.69;5086193;28;20488;-72
2022/01/24 06:36:55;;;;;;;32.40;23.00;;;;;;;-0.26;81.14;100719.50;5088382;28;20499;-70
2022/01/24 06:39:22;;;;;;;30.97;22.77;;;;;;;-0.47;82.03;100720.88;5088125;28;20480;-69
2022/01/24 06:42:03;;;;;;;32.53;22.67;;;;;;;-0.59;82.72;100719.03;5089011;28;20497;-71
2022/01/24 06:44:30;;;;;;;32.57;23.00;;;;;;;-0.40;83.59;100727.41;5090113;28;20425;-69
2022/01/24 06:46:58;;;;;;;38.03;25.87;;;;;;;-0.27;83.18;100733.50;5090289;28;20468;-71
2022/01/24 06:49:24;;;;;;;40.67;26.40;;;;;;;-0.39;82.32;100742.97;5088834;28;20441;-67
2022/01/24 06:51:51;;;;;;;38.57;25.93;;;;;;;-0.54;83.40;100753.50;5089245;28;20596;-68
2022/01/24 06:54:18;;;;;;;33.90;21.93;;;;;;;-0.45;83.87;100752.94;5083414;28;20944;-69
2022/01/24 06:56:44;;;;;;;31.67;19.33;;;;;;;-0.42;83.90;100755.34;5088261;28;20446;-66
2022/01/24 06:59:11;;;;;;;28.27;20.63;;;;;;;-0.44;83.70;100760.66;5088583;28;20490;-68
2022/01/24 07:01:38;;;;;;;37.20;22.30;;;;;;;-0.33;84.41;100755.59;5081915;28;20940;-71
2022/01/24 07:04:06;;;;;;;38.40;23.47;;;;;;;-0.24;83.65;100748.97;5087589;28;20494;-73
2022/01/24 07:06:33;;;;;;;34.33;21.73;;;;;;;-0.08;82.78;100762.75;5088621;28;20441;-65
2022/01/24 07:08:59;;;;;;;31.03;21.57;;;;;;;-0.28;82.78;100756.16;5089496;28;20490;-64
2022/01/24 07:11:26;;;;;;;33.47;23.23;;;;;;;-0.26;83.63;100764.75;5080911;28;20498;-65
2022/01/24 07:13:53;;;;;;;53.07;32.10;;;;;;;-0.21;83.73;100770.50;5073262;28;21026;-66
2022/01/24 07:16:20;;;;;;;43.90;28.93;;;;;;;0.08;85.12;100767.81;5071042;28;21013;-66
2022/01/24 07:18:58;;;;;;;33.80;22.27;;;;;;;0.22;82.80;100771.19;5072947;28;20430;-66
2022/01/24 07:21:26;;;;;;;37.40;25.53;;;;;;;0.37;82.71;100769.38;5091954;28;20433;-63
2022/01/24 07:23:53;;;;;;;36.63;26.60;;;;;;;0.52;81.33;100766.56;5092659;28;20437;-63
2022/01/24 07:26:20;;;;;;;38.87;28.63;;;;;;;0.63;80.26;100785.00;5084539;28;20779;-64
2022/01/24 07:28:47;;;;;;;63.20;35.63;;;;;;;0.76;80.57;100783.25;5090291;28;20501;-65
2022/01/24 07:31:13;;;;;;;32.20;22.17;;;;;;;0.91;80.87;100779.59;5090005;28;20460;-64
2022/01/24 07:33:40;;;;;;;31.20;22.43;;;;;;;1.11;79.22;100786.94;5076168;28;20515;-63
2022/01/24 07:36:07;;;;;;;31.10;22.23;;;;;;;1.24;78.86;100793.00;5072928;28;20426;-63
2022/01/24 07:38:35;;;;;;;34.33;24.17;;;;;;;1.53;78.90;100783.97;5072758;28;20441;-64
2022/01/24 07:41:02;;;;;;;34.90;22.70;;;;;;;1.90;76.92;100790.88;5089460;28;20537;-67
2022/01/24 07:43:28;;;;;;;34.27;23.73;;;;;;;2.06;75.20;100795.84;5092578;28;20782;-66
2022/01/24 07:45:55;;;;;;;43.70;29.30;;;;;;;2.42;74.24;100811.53;5091841;28;20457;-67
2022/01/24 07:48:22;;;;;;;40.70;25.93;;;;;;;2.75;72.88;100811.66;5092679;28;20445;-66
2022/01/24 07:50:51;;;;;;;40.63;26.77;;;;;;;2.91;72.08;100823.53;5091662;28;20510;-67
2022/01/24 07:53:18;;;;;;;39.97;24.50;;;;;;;3.06;68.60;100822.34;5092814;28;20514;-67
2022/01/24 07:55:47;;;;;;;29.77;21.23;;;;;;;3.43;69.43;100813.34;5092504;28;20449;-66
2022/01/24 07:58:14;;;;;;;27.03;18.70;;;;;;;3.85;67.40;100815.22;5092712;28;20452;-67
2022/01/24 08:00:41;;;;;;;37.43;23.30;;;;;;;4.08;65.18;100824.75;5092688;28;20522;-66
2022/01/24 08:03:08;;;;;;;30.10;21.20;;;;;;;4.14;61.85;100819.03;5092644;28;20202;-66
2022/01/24 08:05:36;;;;;;;30.80;24.13;;;;;;;4.01;59.75;100836.72;5092493;28;20674;-67
2022/01/24 08:08:03;;;;;;;14.60;12.80;;;;;;;3.80;57.46;100832.34;5092762;28;20200;-67
2022/01/24 08:10:29;;;;;;;15.77;13.10;;;;;;;3.95;56.10;100831.97;5092721;28;20244;-67
2022/01/24 08:12:58;;;;;;;18.13;13.37;;;;;;;4.19;55.28;100837.06;5092779;28;20271;-66
2022/01/24 08:15:25;;;;;;;10.23;9.23;;;;;;;4.28;50.78;100845.03;5092752;28;20194;-64
2022/01/24 08:17:51;;;;;;;7.93;7.23;;;;;;;4.37;48.50;100846.94;5093050;28;20313;-63
2022/01/24 08:20:19;;;;;;;8.90;8.10;;;;;;;3.92;47.05;100847.97;5092491;28;20231;-66
2022/01/24 08:22:45;;;;;;;9.13;8.33;;;;;;;3.94;48.77;100840.81;5092534;28;20272;-66
2022/01/24 08:25:13;;;;;;;8.70;8.10;;;;;;;4.19;45.69;100850.19;5092787;28;20867;-66
2022/01/24 08:27:40;;;;;;;8.70;7.43;;;;;;;4.27;45.59;100853.91;5091212;28;20191;-65
2022/01/24 08:30:11;;;;;;;10.80;9.70;;;;;;;4.26;46.61;100849.59;5092527;28;20256;-66
2022/01/24 08:32:38;;;;;;;8.13;7.57;;;;;;;3.85;43.30;100841.50;5093057;28;20433;-66
2022/01/24 08:35:06;;;;;;;8.23;7.67;;;;;;;3.66;45.69;100843.06;5092927;28;20469;-67
2022/01/24 08:37:34;;;;;;;8.67;8.00;;;;;;;3.59;46.45;100845.34;5093487;28;20507;-66
2022/01/24 08:40:01;;;;;;;9.17;8.50;;;;;;;3.22;47.22;100849.13;5093190;28;20301;-67
2022/01/24 08:42:34;;;;;;;8.00;7.30;;;;;;;3.44;48.20;100845.69;5093092;28;20494;-65
2022/01/24 08:47:47;;;;;;;7.70;7.07;;;;;;;3.62;43.73;100863.50;5092969;28;20271;-68
2022/01/24 08:50:14;;;;;;;8.30;7.57;;;;;;;3.46;44.81;100860.38;5093149;28;20469;-64
2022/01/24 08:52:40;;;;;;;9.30;8.50;;;;;;;3.46;44.92;100865.63;5092827;28;20723;-65
2022/01/24 08:55:08;;;;;;;10.47;8.40;;;;;;;3.53;46.79;100869.47;5093270;28;20441;-67
2022/01/24 08:57:34;;;;;;;9.03;8.23;;;;;;;3.43;46.96;100865.88;5092763;28;20437;-68
2022/01/24 09:00:01;;;;;;;8.43;7.63;;;;;;;3.59;46.41;100866.34;5092968;28;20546;-67
2022/01/24 09:02:28;;;;;;;8.67;7.87;;;;;;;3.95;45.81;100868.75;5092812;28;20449;-65
2022/01/24 09:04:56;;;;;;;8.17;7.47;;;;;;;4.22;44.14;100871.00;5092289;28;20445;-65
2022/01/24 09:07:24;;;;;;;8.17;7.37;;;;;;;4.08;43.28;100874.72;5092475;28;20425;-65
2022/01/24 09:09:51;;;;;;;7.93;7.30;;;;;;;4.25;43.79;100884.72;5092311;28;20663;-65
2022/01/24 09:12:18;;;;;;;9.03;8.13;;;;;;;4.41;43.12;100882.53;5092837;28;20255;-65
2022/01/24 09:14:47;;;;;;;8.20;7.50;;;;;;;4.58;44.27;100884.66;5093126;28;20244;-64
2022/01/24 09:17:14;;;;;;;8.40;7.80;;;;;;;4.87;42.26;100883.09;5092425;28;20199;-66
2022/01/24 09:19:41;;;;;;;8.00;7.37;;;;;;;5.04;41.13;100882.56;5092655;28;20640;-64
2022/01/24 09:22:10;;;;;;;8.43;7.77;;;;;;;4.74;40.79;100874.56;5092452;28;20257;-67
2022/01/24 09:24:38;;;;;;;7.90;7.10;;;;;;;4.28;41.34;100878.38;5092356;28;20248;-66
2022/01/24 09:27:05;;;;;;;8.30;7.60;;;;;;;4.35;41.25;100876.94;5092673;28;20199;-67
2022/01/24 09:29:32;;;;;;;7.70;7.20;;;;;;;4.47;41.46;100866.28;5092783;28;20187;-68
2022/01/24 09:31:59;;;;;;;10.37;7.80;;;;;;;4.80;40.91;100889.84;5092250;28;20195;-67
2022/01/24 09:34:26;;;;;;;8.73;7.83;;;;;;;4.92;39.11;100865.16;5092791;28;20276;-68
2022/01/24 09:36:53;;;;;;;9.07;5.70;;;;;;;5.35;38.47;100881.66;5092573;28;20728;-67
2022/01/24 09:39:21;;;;;;;6.40;5.80;;;;;;;5.29;37.07;100881.34;5091780;28;20552;-67
2022/01/24 09:41:47;;;;;;;6.57;6.10;;;;;;;5.36;38.03;100871.97;5082891;28;20215;-67
2022/01/24 09:44:15;;;;;;;6.20;5.63;;;;;;;5.29;37.24;100876.94;5091369;28;20658;-69
2022/01/24 09:46:43;;;;;;;6.50;6.10;;;;;;;5.27;36.99;100873.56;5090265;28;20195;-69
2022/01/24 09:49:11;;;;;;;6.87;6.30;;;;;;;5.42;35.90;100872.31;5088304;28;20196;-72
2022/01/24 09:51:38;;;;;;;7.20;6.50;;;;;;;5.44;35.81;100873.00;5089086;28;20198;-72
2022/01/24 09:54:05;;;;;;;7.17;6.67;;;;;;;5.46;35.91;100873.72;5085070;28;20192;-73
2022/01/24 09:56:34;;;;;;;7.30;6.80;;;;;;;5.72;35.61;100869.69;5089647;28;20244;-71
2022/01/24 09:59:01;;;;;;;8.80;8.00;;;;;;;5.92;35.45;100875.88;5090435;28;20195;-74
2022/01/24 10:01:30;;;;;;;7.40;6.77;;;;;;;6.04;35.13;100863.47;5090291;28;20248;-73
2022/01/24 10:04:14;;;;;;;7.10;6.50;;;;;;;6.11;35.34;100859.31;5090044;28;20203;-71
2022/01/24 10:07:02;;;;;;;12.13;6.50;;;;;;;6.30;34.34;100862.84;5090127;28;20736;-71
2022/01/24 10:09:35;;;;;;;7.10;6.60;;;;;;;6.38;33.70;100864.81;5089962;28;20189;-71
2022/01/24 10:12:14;;;;;;;7.80;7.10;;;;;;;6.38;35.35;100857.72;5089933;28;20199;-71
2022/01/24 10:17:29;;;;;;;10.13;8.77;;;;;;;5.83;36.93;100849.50;5069869;28;20178;-73
2022/01/24 10:19:56;;;;;;;9.33;8.07;;;;;;;5.66;38.58;100843.00;5076170;28;20200;-72
2022/01/24 10:22:25;;;;;;;8.97;8.17;;;;;;;5.62;38.40;100850.34;5090009;28;20193;-74
2022/01/24 10:24:56;;;;;;;9.57;8.70;;;;;;;5.65;39.61;100847.44;5090005;28;20252;-74
2022/01/24 10:27:27;;;;;;;8.67;7.87;;;;;;;5.63;39.31;100846.75;5090249;28;20215;-74
2022/01/24 10:29:56;;;;;;;8.07;7.37;;;;;;;5.21;36.57;100852.19;5089637;28;20575;-74
2022/01/24 10:32:38;;;;;;;16.27;8.93;;;;;;;4.55;37.25;100848.09;5089893;28;20191;-73
2022/01/24 10:35:26;;;;;;;9.17;8.23;;;;;;;4.50;38.89;100852.84;5090064;28;20698;-73
2022/01/24 10:37:55;;;;;;;11.10;7.33;;;;;;;4.61;39.85;100855.47;5090306;28;20193;-73
2022/01/24 10:40:36;;;;;;;16.90;7.57;;;;;;;4.64;39.49;100846.47;5089606;28;20306;-74
2022/01/24 10:43:18;;;;;;;21.43;8.07;;;;;;;4.68;39.36;100847.91;5090250;28;20184;-71
2022/01/24 10:45:46;;;;;;;8.67;7.57;;;;;;;4.70;40.27;100848.63;5089687;28;20337;-74
2022/01/24 10:48:14;;;;;;;13.97;8.53;;;;;;;4.74;39.46;100848.22;5090124;28;20192;-74
2022/01/24 10:50:41;;;;;;;9.10;8.20;;;;;;;5.11;40.22;100846.84;5090751;28;20244;-72
2022/01/24 10:53:12;;;;;;;6.77;5.93;;;;;;;5.18;39.17;100848.00;5092062;28;20191;-72
2022/01/24 10:55:40;;;;;;;7.47;6.63;;;;;;;5.22;38.21;100838.91;5083220;28;20191;-73
2022/01/24 10:58:09;;;;;;;7.77;7.07;;;;;;;5.33;38.12;100836.19;5093405;28;20198;-72
2022/01/24 11:00:40;;;;;;;7.60;7.00;;;;;;;5.40;39.05;100839.97;5094082;28;20224;-73
2022/01/24 11:03:08;;;;;;;5.27;4.97;;;;;;;5.30;35.64;100847.00;5094086;28;20214;-75
2022/01/24 11:05:36;;;;;;;7.57;6.83;;;;;;;5.21;37.80;100837.22;5094143;28;20614;-71
2022/01/24 11:08:05;;;;;;;6.40;5.93;;;;;;;5.38;36.96;100843.69;5094120;28;20188;-71
2022/01/24 11:10:34;;;;;;;6.97;5.87;;;;;;;5.27;36.04;100835.88;5094149;28;20201;-74
2022/01/24 11:13:03;;;;;;;8.73;5.97;;;;;;;5.20;34.79;100850.53;5087721;28;20191;-74
2022/01/24 11:15:30;;;;;;;8.50;7.70;;;;;;;5.16;35.72;100839.38;5094869;28;20194;-72
2022/01/24 11:17:59;;;;;;;6.23;5.83;;;;;;;5.07;36.09;100840.16;5093316;28;20245;-78
2022/01/24 11:20:30;;;;;;;9.17;7.13;;;;;;;4.72;37.16;100839.63;5091422;28;20271;-69
2022/01/24 11:23:01;;;;;;;7.63;6.83;;;;;;;4.22;37.05;100840.28;5091997;28;20291;-70
2022/01/24 11:25:29;;;;;;;6.17;5.67;;;;;;;3.82;36.08;100836.50;5092816;28;20198;-70
2022/01/24 11:27:56;;;;;;;5.10;4.80;;;;;;;3.38;35.67;100844.38;5091519;28;20225;-72
2022/01/24 11:30:24;;;;;;;9.97;5.60;;;;;;;3.10;36.42;100844.78;5092613;28;20298;-73
2022/01/24 11:32:54;;;;;;;6.10;5.60;;;;;;;3.01;36.74;100837.63;5088990;28;20655;-71
2022/01/24 11:35:40;;;;;;;5.73;5.43;;;;;;;2.94;37.26;100852.16;5091035;28;20231;-73
2022/01/24 11:38:28;;;;;;;5.93;5.30;;;;;;;2.99;37.09;100843.94;5093097;28;20469;-73
2022/01/24 11:41:00;;;;;;;6.43;5.83;;;;;;;3.25;37.76;100846.28;5092567;28;20492;-73
2022/01/24 11:43:29;;;;;;;10.50;9.10;;;;;;;3.38;37.58;100852.25;5086621;28;20198;-69
2022/01/24 11:46:04;;;;;;;18.03;12.07;;;;;;;3.39;36.65;100830.28;5085269;28;20245;-70
2022/01/24 11:48:32;;;;;;;11.87;9.90;;;;;;;3.45;37.65;100842.97;5092952;28;20435;-67
2022/01/24 11:51:05;;;;;;;9.63;7.97;;;;;;;3.34;38.29;100848.19;5092629;28;20480;-69
2022/01/24 11:53:34;;;;;;;6.97;6.47;;;;;;;2.97;38.23;100830.94;5092782;28;20195;-70
2022/01/24 11:56:20;;;;;;;6.57;6.13;;;;;;;2.88;37.93;100842.13;5092759;28;20498;-69
2022/01/24 11:58:47;;;;;;;6.57;5.97;;;;;;;2.76;37.43;100837.78;5092722;28;20429;-70
2022/01/24 12:01:33;;;;;;;6.43;5.90;;;;;;;2.66;37.93;100838.59;5092127;28;20469;-68
2022/01/24 12:04:00;;;;;;;7.27;6.57;;;;;;;2.75;37.69;100841.38;5063900;28;20480;-69
2022/01/24 12:06:28;;;;;;;10.90;6.77;;;;;;;2.61;38.00;100838.91;5066933;28;20523;-70
2022/01/24 12:09:03;;;;;;;14.03;6.60;;;;;;;2.73;38.38;100843.25;5088724;28;20429;-71
2022/01/24 12:11:34;;;;;;;9.43;6.60;;;;;;;2.67;38.55;100838.47;5092417;28;21210;-69
2022/01/24 12:14:13;;;;;;;6.50;6.00;;;;;;;2.65;39.79;100835.09;5092323;28;20495;-69
2022/01/24 12:16:45;;;;;;;5.17;4.67;;;;;;;2.48;37.58;100843.38;5091279;28;20437;-70
2022/01/24 12:19:12;;;;;;;7.43;6.77;;;;;;;2.34;37.22;100840.94;5092459;28;20508;-69
2022/01/24 12:21:43;;;;;;;6.60;6.00;;;;;;;2.01;37.60;100840.75;5083442;28;20465;-70
2022/01/24 12:24:11;;;;;;;5.50;5.10;;;;;;;2.14;37.43;100844.16;5091324;28;20471;-69
2022/01/24 12:26:41;;;;;;;7.67;7.00;;;;;;;2.12;37.80;100843.41;5091918;28;20459;-70
2022/01/24 12:29:10;;;;;;;12.97;9.83;;;;;;;2.23;36.85;100838.25;5087649;28;21046;-72
2022/01/24 12:31:44;;;;;;;6.93;6.20;;;;;;;2.29;36.80;100848.28;5089299;28;20436;-70
2022/01/24 12:34:25;;;;;;;5.80;5.40;;;;;;;2.72;35.96;100851.22;5089532;28;21020;-71
2022/01/24 12:37:03;;;;;;;5.97;5.40;;;;;;;2.79;36.70;100848.06;5087609;28;20495;-71
2022/01/24 12:39:36;;;;;;;7.37;6.27;;;;;;;2.95;36.96;100848.59;5070348;28;20491;-71